Time;durP1;ratioP1;P1;durP2;ratioP2;P2;SDS_P1;SDS_P2;PMS_P1;PMS_P2;Temp;Humidity;BMP_temperature;BMP_pressure;BME280_temperature;BME280_humidity;BME280_pressure;Samples;Min_cycle;Max_cycle;Signal;HPM_P1;HPM_P2
2023/10/10 00:01:07;;;;;;;;;;;22.60;99.90;;;;;;5114470;28;19912;-70
2023/10/10 00:03:39;;;;;;;;;;;22.40;99.90;;;;;;5114318;28;20275;-71
2023/10/10 00:06:08;;;;;;;;;;;22.30;99.90;;;;;;5112001;28;19908;-71
2023/10/10 00:08:41;;;;;;;;;;;22.10;99.90;;;;;;5114205;28;20000;-71
2023/10/10 00:11:14;;;;;;;;;;;22.00;99.90;;;;;;5114364;28;19908;-72
2023/10/10 00:13:52;;;;;;;;;;;21.90;99.90;;;;;;5113966;28;19919;-71
2023/10/10 00:16:26;;;;;;;;;;;21.90;99.90;;;;;;5101203;28;19996;-75
2023/10/10 00:18:55;;;;;;;;;;;21.90;99.90;;;;;;5091859;28;19916;-73
2023/10/10 00:21:28;;;;;;;;;;;22.10;99.90;;;;;;5104730;28;19915;-72
2023/10/10 00:23:59;;;;;;;;;;;22.30;99.90;;;;;;5112357;28;19908;-76
2023/10/10 00:26:26;;;;;;;;;;;22.60;99.90;;;;;;5111652;28;19918;-73
2023/10/10 00:28:56;;;;;;;;;;;22.80;99.90;;;;;;5112018;28;19933;-74
2023/10/10 00:31:23;;;;;;;;;;;23.00;99.90;;;;;;5111535;28;19908;-73
2023/10/10 00:33:51;;;;;;;;;;;23.20;99.90;;;;;;5114547;28;19918;-74
2023/10/10 00:36:22;;;;;;;;;;;23.00;99.90;;;;;;5113736;28;19908;-75
2023/10/10 00:39:05;;;;;;;;;;;23.00;99.90;;;;;;5113580;28;20003;-75
2023/10/10 00:41:32;;;;;;;;;;;22.90;99.90;;;;;;5112636;28;19914;-71
2023/10/10 00:43:59;;;;;;;;;;;23.10;99.90;;;;;;5114122;28;20415;-69
2023/10/10 00:46:28;;;;;;;;;;;23.40;99.90;;;;;;5113658;28;20356;-72
2023/10/10 00:48:59;;;;;;;;;;;23.70;99.90;;;;;;5113233;28;20003;-72
2023/10/10 00:51:33;;;;;;;;;;;23.70;99.70;;;;;;5113417;28;19915;-71
2023/10/10 00:57:08;;;;;;;;;;;23.60;98.90;;;;;;5066410;28;20283;-76
2023/10/10 00:59:36;;;;;;;;;;;23.40;98.80;;;;;;5070117;28;19909;-74
2023/10/10 01:02:05;;;;;;;;;;;23.40;99.30;;;;;;5073641;28;19915;-75
2023/10/10 01:04:38;;;;;;;;;;;23.30;99.30;;;;;;5105076;28;19908;-75
2023/10/10 01:07:08;;;;;;;;;;;23.30;99.30;;;;;;5097533;27;20330;-73
2023/10/10 01:09:55;;;;;;;;;;;23.30;99.40;;;;;;5092787;28;19913;-71
2023/10/10 01:12:23;;;;;;;;;;;23.40;99.40;;;;;;5112310;28;20018;-74
2023/10/10 01:15:00;;;;;;;;;;;23.50;99.30;;;;;;5111859;28;19915;-73
2023/10/10 01:17:30;;;;;;;;;;;23.50;99.60;;;;;;5114240;27;19939;-72
2023/10/10 01:20:09;;;;;;;;;;;23.70;99.10;;;;;;5112869;28;19912;-70
2023/10/10 01:22:38;;;;;;;;;;;23.80;98.90;;;;;;5108880;28;19962;-68
2023/10/10 01:25:47;;;;;;;;;;;23.80;99.10;;;;;;5109497;28;20000;-73
2023/10/10 01:27:56;;;;;;;;;;;24.10;98.80;;;;;;5100831;28;20359;-75
2023/10/10 01:30:43;;;;;;;;;;;24.50;97.90;;;;;;5112307;28;19908;-73
2023/10/10 01:33:22;;;;;;;;;;;24.80;97.70;;;;;;5109313;28;19947;-71
2023/10/10 01:35:59;;;;;;;;;;;24.90;96.20;;;;;;5109699;27;19980;-70
2023/10/10 01:38:44;;;;;;;;;;;24.90;96.10;;;;;;5109481;28;19927;-69
2023/10/10 01:41:30;;;;;;;;;;;24.70;96.60;;;;;;5111678;28;20007;-73
2023/10/10 01:44:10;;;;;;;;;;;24.30;97.00;;;;;;5112414;28;19912;-73
2023/10/10 01:46:37;;;;;;;;;;;24.00;97.40;;;;;;5112163;28;19915;-74
2023/10/10 01:49:08;;;;;;;;;;;24.00;97.90;;;;;;5112859;28;19920;-72
2023/10/10 01:51:35;;;;;;;;;;;24.60;97.20;;;;;;5112731;28;20478;-74
2023/10/10 01:54:29;;;;;;;;;;;25.30;96.40;;;;;;5111940;28;20326;-73
2023/10/10 01:56:51;;;;;;;;;;;25.70;95.00;;;;;;5111112;28;19950;-73
2023/10/10 01:59:25;;;;;;;;;;;25.70;94.90;;;;;;5109420;28;19908;-72
2023/10/10 02:01:57;;;;;;;;;;;25.50;94.60;;;;;;5111690;28;20555;-73
2023/10/10 02:04:34;;;;;;;;;;;25.20;94.30;;;;;;5110028;28;19942;-73
2023/10/10 02:07:13;;;;;;;;;;;25.10;95.00;;;;;;5111945;28;19919;-73
2023/10/10 02:09:43;;;;;;;;;;;25.30;95.00;;;;;;5112144;28;19908;-73
2023/10/10 02:12:15;;;;;;;;;;;25.50;95.10;;;;;;5112361;28;19995;-74
2023/10/10 02:14:45;;;;;;;;;;;25.90;94.40;;;;;;5111965;28;19911;-75
2023/10/10 02:17:23;;;;;;;;;;;26.20;94.40;;;;;;5111524;28;19943;-72
2023/10/10 02:19:53;;;;;;;;;;;26.60;92.90;;;;;;5111881;28;19915;-72
2023/10/10 02:22:33;;;;;;;;;;;26.80;92.70;;;;;;5112029;28;20353;-70
2023/10/10 02:27:56;;;;;;;;;;;27.30;91.90;;;;;;5067344;28;19952;-69
2023/10/10 02:30:36;;;;;;;;;;;27.60;90.90;;;;;;5094543;28;19908;-71
2023/10/10 02:33:14;;;;;;;;;;;27.80;90.90;;;;;;5095520;28;19973;-72
2023/10/10 02:35:56;;;;;;;;;;;28.00;90.30;;;;;;5101700;28;19908;-73
2023/10/10 02:38:25;;;;;;;;;;;28.40;90.00;;;;;;5115392;28;20006;-72
2023/10/10 02:40:55;;;;;;;;;;;28.90;90.00;;;;;;5115546;28;19998;-73
2023/10/10 02:43:45;;;;;;;;;;;29.70;86.20;;;;;;5115356;28;19908;-75
2023/10/10 02:46:17;;;;;;;;;;;30.40;83.70;;;;;;5115575;28;20277;-74
2023/10/10 02:48:45;;;;;;;;;;;31.60;80.10;;;;;;5115925;28;19927;-73
2023/10/10 02:51:15;;;;;;;;;;;32.10;78.50;;;;;;5115743;28;19958;-73
2023/10/10 02:53:46;;;;;;;;;;;31.90;77.90;;;;;;5115865;28;19981;-74
2023/10/10 02:56:19;;;;;;;;;;;30.70;78.40;;;;;;5115598;28;20028;-76
2023/10/10 02:58:48;;;;;;;;;;;30.30;80.10;;;;;;5115971;28;20301;-72
2023/10/10 03:01:56;;;;;;;;;;;30.80;79.10;;;;;;5116037;28;19912;-72
2023/10/10 03:04:17;;;;;;;;;;;31.60;77.40;;;;;;5114486;28;19907;-67
2023/10/10 03:06:44;;;;;;;;;;;32.90;75.00;;;;;;5114736;28;19986;-72
2023/10/10 03:09:38;;;;;;;;;;;33.20;74.80;;;;;;5114836;28;19914;-72
2023/10/10 03:12:05;;;;;;;;;;;33.70;70.20;;;;;;5114212;28;19911;-73
2023/10/10 03:14:34;;;;;;;;;;;33.90;72.40;;;;;;5113258;28;19908;-74
2023/10/10 03:17:06;;;;;;;;;;;33.40;71.60;;;;;;5112647;28;19908;-74
2023/10/10 03:19:41;;;;;;;;;;;31.90;73.50;;;;;;5115065;28;19961;-73
2023/10/10 03:25:23;;;;;;;;;;;31.80;73.30;;;;;;5051796;28;20015;-75
2023/10/10 03:28:05;;;;;;;;;;;33.00;73.50;;;;;;5107370;28;20002;-76
2023/10/10 03:30:50;;;;;;;;;;;34.00;69.80;;;;;;5113385;28;20318;-75
2023/10/10 05:25:31;;;;;;;;;;;33.30;66.70;;;;;;5108377;28;20417;-68
2023/10/10 05:28:00;;;;;;;;;;;31.80;69.10;;;;;;5109873;28;19968;-75
2023/10/10 05:30:39;;;;;;;;;;;30.10;71.80;;;;;;5108054;28;19923;-72
2023/10/10 05:33:07;;;;;;;;;;;28.70;74.60;;;;;;5109623;28;19919;-71
2023/10/10 05:35:34;;;;;;;;;;;28.10;76.20;;;;;;5109295;28;20468;-71
2023/10/10 05:38:01;;;;;;;;;;;26.90;78.60;;;;;;5107089;28;21311;-71
2023/10/10 05:40:33;;;;;;;;;;;26.90;79.30;;;;;;5109968;28;19960;-71
2023/10/10 05:43:00;;;;;;;;;;;27.10;79.30;;;;;;5107943;28;19912;-72
2023/10/10 05:45:26;;;;;;;;;;;26.80;78.10;;;;;;5111276;28;19912;-68
2023/10/10 05:47:54;;;;;;;;;;;26.50;79.90;;;;;;5106624;28;20011;-71
2023/10/10 05:50:22;;;;;;;;;;;26.60;80.30;;;;;;5108014;28;20390;-70
2023/10/10 05:52:49;;;;;;;;;;;26.40;79.80;;;;;;5108853;28;19927;-71
2023/10/10 05:55:15;;;;;;;;;;;26.10;81.60;;;;;;5110971;28;19912;-72
2023/10/10 05:57:42;;;;;;;;;;;26.00;81.30;;;;;;5108336;28;19934;-74
2023/10/10 06:00:10;;;;;;;;;;;25.30;82.00;;;;;;5110572;28;19908;-66
2023/10/10 06:02:37;;;;;;;;;;;25.10;84.20;;;;;;5106571;28;19919;-67
2023/10/10 06:05:05;;;;;;;;;;;25.10;85.40;;;;;;5111539;28;19926;-67
2023/10/10 06:07:33;;;;;;;;;;;25.60;84.90;;;;;;5110342;27;20364;-71
2023/10/10 06:10:00;;;;;;;;;;;27.10;80.80;;;;;;5101903;28;19916;-74
2023/10/10 06:12:28;;;;;;;;;;;28.00;79.00;;;;;;5113010;28;20001;-72
2023/10/10 06:14:55;;;;;;;;;;;28.50;77.20;;;;;;5116131;27;19907;-71
2023/10/10 06:17:21;;;;;;;;;;;28.40;77.30;;;;;;5122091;27;19908;-71
2023/10/10 06:19:50;;;;;;;;;;;28.20;76.70;;;;;;5103612;28;19912;-68
2023/10/10 06:22:17;;;;;;;;;;;27.50;77.70;;;;;;5095343;28;19916;-75
2023/10/10 06:24:43;;;;;;;;;;;27.20;80.10;;;;;;5096934;28;19912;-73
2023/10/10 06:27:13;;;;;;;;;;;27.60;78.10;;;;;;5096426;28;19984;-73
2023/10/10 06:29:40;;;;;;;;;;;27.10;78.40;;;;;;5101579;28;20012;-74
2023/10/10 06:32:15;;;;;;;;;;;26.30;80.00;;;;;;5111895;28;19923;-74
2023/10/10 06:34:48;;;;;;;;;;;25.70;81.50;;;;;;5098296;28;20356;-73
2023/10/10 06:37:14;;;;;;;;;;;25.20;83.00;;;;;;5108950;28;19911;-74
2023/10/10 06:39:57;;;;;;;;;;;24.60;84.40;;;;;;5113774;28;19951;-70
2023/10/10 06:42:29;;;;;;;;;;;24.40;86.00;;;;;;5110100;28;19938;-73
2023/10/10 06:45:07;;;;;;;;;;;24.10;86.30;;;;;;5109632;28;20006;-75
2023/10/10 06:47:44;;;;;;;;;;;23.60;87.70;;;;;;5110964;28;19926;-74
2023/10/10 06:50:11;;;;;;;;;;;23.30;87.90;;;;;;5111071;28;20311;-73
2023/10/10 06:52:38;;;;;;;;;;;23.10;89.80;;;;;;5112381;28;19919;-72
2023/10/10 06:55:12;;;;;;;;;;;22.90;89.00;;;;;;5112893;28;20002;-71
2023/10/10 06:57:40;;;;;;;;;;;22.80;90.30;;;;;;5113703;27;19912;-74
2023/10/10 07:00:21;;;;;;;;;;;22.70;90.40;;;;;;5113685;28;19920;-72
2023/10/10 07:02:53;;;;;;;;;;;22.60;90.20;;;;;;5112363;28;20375;-67
2023/10/10 07:05:20;;;;;;;;;;;22.40;90.40;;;;;;5113363;28;19912;-71
2023/10/10 07:07:52;;;;;;;;;;;22.30;90.90;;;;;;5113959;28;19927;-75
2023/10/10 07:10:26;;;;;;;;;;;22.10;91.00;;;;;;5113066;28;20010;-74
2023/10/10 07:12:58;;;;;;;;;;;22.10;91.20;;;;;;5109759;27;19924;-70
2023/10/10 07:15:25;;;;;;;;;;;21.80;91.00;;;;;;5112833;28;20237;-72
2023/10/10 07:18:04;;;;;;;;;;;21.70;91.40;;;;;;5112769;28;19919;-68
2023/10/10 07:23:22;;;;;;;;;;;21.60;92.00;;;;;;5117953;27;19927;-75
2023/10/10 07:25:59;;;;;;;;;;;21.50;92.30;;;;;;5112390;28;19957;-70
2023/10/10 07:28:26;;;;;;;;;;;21.60;92.10;;;;;;5110615;27;19919;-72
2023/10/10 07:30:54;;;;;;;;;;;21.60;92.30;;;;;;5095003;28;20386;-71
2023/10/10 07:33:26;;;;;;;;;;;21.60;92.40;;;;;;5112644;28;19923;-74
2023/10/10 07:35:55;;;;;;;;;;;21.50;93.10;;;;;;5112461;28;19912;-73
2023/10/10 07:38:35;;;;;;;;;;;21.50;93.30;;;;;;5105475;28;19916;-74
2023/10/10 07:41:04;;;;;;;;;;;21.50;93.30;;;;;;5103923;28;20375;-68
2023/10/10 07:43:34;;;;;;;;;;;21.40;93.50;;;;;;5110302;28;19916;-75
2023/10/10 07:46:18;;;;;;;;;;;21.30;93.70;;;;;;5116254;28;19916;-70
2023/10/10 07:48:46;;;;;;;;;;;21.10;94.20;;;;;;5108063;28;20003;-72
2023/10/10 07:51:22;;;;;;;;;;;20.90;94.80;;;;;;5102702;28;19912;-73
2023/10/10 07:53:58;;;;;;;;;;;20.70;95.20;;;;;;5100701;28;20312;-71
2023/10/10 07:56:25;;;;;;;;;;;20.70;95.90;;;;;;5111118;28;19978;-72
2023/10/10 07:58:56;;;;;;;;;;;20.70;96.00;;;;;;5108076;28;19934;-70
2023/10/10 08:01:23;;;;;;;;;;;20.60;96.30;;;;;;5084126;28;19965;-76
2023/10/10 08:03:50;;;;;;;;;;;20.60;96.30;;;;;;5106325;28;19955;-73
2023/10/10 08:06:18;;;;;;;;;;;20.50;96.50;;;;;;5098845;27;20432;-74
2023/10/10 08:09:10;;;;;;;;;;;20.50;97.20;;;;;;5105090;27;20015;-69
2023/10/10 08:11:36;;;;;;;;;;;20.40;98.20;;;;;;5095149;28;19920;-72
2023/10/10 08:14:06;;;;;;;;;;;20.30;99.40;;;;;;5098501;27;19920;-67
2023/10/10 08:16:34;;;;;;;;;;;20.20;99.90;;;;;;5102738;27;19918;-68
2023/10/10 08:19:15;;;;;;;;;;;20.20;99.90;;;;;;5108565;27;19915;-70
2023/10/10 08:21:50;;;;;;;;;;;20.10;99.90;;;;;;5115995;27;19926;-71
2023/10/10 08:24:17;;;;;;;;;;;20.00;99.90;;;;;;5118809;27;19919;-70
2023/10/10 08:26:44;;;;;;;;;;;20.00;99.90;;;;;;5106068;27;19912;-68
2023/10/10 08:29:14;;;;;;;;;;;19.90;99.90;;;;;;5097951;27;19908;-74
2023/10/10 08:31:44;;;;;;;;;;;19.80;99.90;;;;;;5092859;28;20268;-66
2023/10/10 08:34:11;;;;;;;;;;;19.80;99.90;;;;;;5106233;28;19994;-71
2023/10/10 08:36:43;;;;;;;;;;;19.70;99.90;;;;;;5113938;27;20397;-68
2023/10/10 08:41:43;;;;;;;;;;;19.50;99.90;;;;;;5111008;27;20389;-68
2023/10/10 08:44:11;;;;;;;;;;;19.50;99.90;;;;;;5103998;27;19918;-73
2023/10/10 08:46:41;;;;;;;;;;;19.50;99.90;;;;;;5119187;27;19918;-70
2023/10/10 08:49:08;;;;;;;;;;;19.50;99.90;;;;;;5125567;27;20030;-70
2023/10/10 08:51:35;;;;;;;;;;;19.40;99.90;;;;;;5101645;27;20387;-68
2023/10/10 08:54:12;;;;;;;;;;;19.50;99.90;;;;;;5114286;27;19963;-75
2023/10/10 08:57:03;;;;;;;;;;;19.50;99.90;;;;;;5112561;28;19908;-75
2023/10/10 08:59:30;;;;;;;;;;;19.60;99.90;;;;;;5107865;27;20006;-72
2023/10/10 09:02:05;;;;;;;;;;;19.60;99.90;;;;;;5090882;28;19919;-74
2023/10/10 09:04:32;;;;;;;;;;;19.60;99.90;;;;;;5115915;27;19965;-67
2023/10/10 09:07:00;;;;;;;;;;;19.60;99.90;;;;;;5106473;27;19919;-73
2023/10/10 09:09:34;;;;;;;;;;;19.70;99.90;;;;;;5108575;27;19926;-76
2023/10/10 09:12:12;;;;;;;;;;;19.70;99.90;;;;;;5108535;27;19939;-70
2023/10/10 09:14:43;;;;;;;;;;;19.70;99.90;;;;;;5105497;27;19927;-69
2023/10/10 09:17:29;;;;;;;;;;;19.70;99.90;;;;;;5105950;27;20357;-71
2023/10/10 09:20:09;;;;;;;;;;;19.60;99.90;;;;;;5109161;27;20019;-67
2023/10/10 09:22:51;;;;;;;;;;;19.70;99.90;;;;;;5113170;27;19916;-70
2023/10/10 09:25:25;;;;;;;;;;;19.60;99.90;;;;;;5112731;27;19907;-72
2023/10/10 09:27:59;;;;;;;;;;;19.60;99.90;;;;;;5108923;28;19912;-70
2023/10/10 09:30:40;;;;;;;;;;;19.60;99.90;;;;;;5105186;28;19918;-70
2023/10/10 09:33:16;;;;;;;;;;;19.60;99.90;;;;;;5107732;28;20018;-74
2023/10/10 09:35:49;;;;;;;;;;;19.60;99.90;;;;;;5090561;28;19908;-66
2023/10/10 09:38:20;;;;;;;;;;;19.60;99.90;;;;;;5109296;28;19920;-71
2023/10/10 09:40:48;;;;;;;;;;;19.60;99.90;;;;;;5109630;28;20292;-69
2023/10/10 09:43:35;;;;;;;;;;;19.60;99.90;;;;;;5104265;28;19926;-72
2023/10/10 09:46:18;;;;;;;;;;;19.60;99.90;;;;;;5110550;28;19912;-73
2023/10/10 09:49:40;;;;;;;;;;;19.60;99.90;;;;;;5108788;28;19920;-73
2023/10/10 09:54:25;;;;;;;;;;;19.40;99.90;;;;;;5110674;28;20433;-71
2023/10/10 09:56:56;;;;;;;;;;;19.40;99.90;;;;;;5107052;28;20003;-74
2023/10/10 09:59:28;;;;;;;;;;;19.30;99.90;;;;;;5111610;28;19912;-72
2023/10/10 10:02:05;;;;;;;;;;;19.20;99.90;;;;;;5111471;28;19919;-73
2023/10/10 10:04:38;;;;;;;;;;;19.30;99.90;;;;;;5108409;28;19912;-69
2023/10/10 10:07:12;;;;;;;;;;;19.20;99.90;;;;;;5109851;28;19984;-74
2023/10/10 10:09:58;;;;;;;;;;;19.30;99.90;;;;;;5100719;28;19912;-70
2023/10/10 10:12:30;;;;;;;;;;;19.20;99.90;;;;;;5107837;28;19923;-69
2023/10/10 10:15:18;;;;;;;;;;;19.20;99.90;;;;;;5116103;28;19919;-72
2023/10/10 10:18:29;;;;;;;;;;;19.20;99.90;;;;;;5112767;28;19990;-71
2023/10/10 10:23:45;;;;;;;;;;;19.20;99.90;;;;;;5105835;28;20283;-71
2023/10/10 10:26:12;;;;;;;;;;;19.20;99.90;;;;;;5111913;28;20394;-74
2023/10/10 10:28:42;;;;;;;;;;;19.20;99.90;;;;;;5112133;28;19912;-71
2023/10/10 10:31:28;;;;;;;;;;;19.30;99.90;;;;;;5105028;28;19918;-74
2023/10/10 10:34:07;;;;;;;;;;;19.20;99.90;;;;;;5110357;28;19928;-76
2023/10/10 10:36:44;;;;;;;;;;;19.10;99.90;;;;;;5111926;28;20387;-74
2023/10/10 10:39:34;;;;;;;;;;;19.10;99.90;;;;;;5106900;28;20441;-74
2023/10/10 10:42:01;;;;;;;;;;;19.10;99.90;;;;;;5109426;28;19911;-68
2023/10/10 10:44:54;;;;;;;;;;;19.10;99.90;;;;;;5110653;28;19943;-68
2023/10/10 10:47:38;;;;;;;;;;;19.10;99.90;;;;;;5110023;28;20412;-68
2023/10/10 10:50:05;;;;;;;;;;;19.10;99.90;;;;;;5105329;28;20284;-70
2023/10/10 10:52:44;;;;;;;;;;;19.10;99.90;;;;;;5114286;28;19915;-68
2023/10/10 10:55:27;;;;;;;;;;;19.10;99.90;;;;;;5113032;28;19911;-68
2023/10/10 10:58:49;;;;;;;;;;;19.20;99.90;;;;;;5113309;28;19915;-68
2023/10/10 11:01:00;;;;;;;;;;;19.20;99.90;;;;;;5097836;28;19919;-75
2023/10/10 11:03:34;;;;;;;;;;;19.30;99.90;;;;;;5111965;28;19943;-70
2023/10/10 11:06:14;;;;;;;;;;;19.30;99.90;;;;;;5109405;28;19916;-72
2023/10/10 11:14:00;;;;;;;;;;;19.20;99.90;;;;;;5113793;28;19973;-70
2023/10/10 11:16:39;;;;;;;;;;;19.10;99.90;;;;;;5112033;28;19914;-71
2023/10/10 11:19:39;;;;;;;;;;;19.20;99.90;;;;;;5111622;28;20348;-73
2023/10/10 11:22:02;;;;;;;;;;;19.20;99.90;;;;;;5106626;28;19966;-71
2023/10/10 11:24:31;;;;;;;;;;;19.10;99.90;;;;;;5114145;28;20003;-70
2023/10/10 11:27:13;;;;;;;;;;;19.20;99.90;;;;;;5114030;28;19912;-73
2023/10/10 11:29:50;;;;;;;;;;;19.30;99.90;;;;;;5108121;28;20007;-71
2023/10/10 11:32:24;;;;;;;;;;;19.30;99.90;;;;;;5111022;28;20372;-71
2023/10/10 11:34:57;;;;;;;;;;;19.30;99.90;;;;;;5111129;28;20376;-70
2023/10/10 11:37:31;;;;;;;;;;;19.20;99.90;;;;;;5108797;28;20261;-70
2023/10/10 11:42:57;;;;;;;;;;;19.30;99.90;;;;;;5074502;28;19919;-73
2023/10/10 11:45:27;;;;;;;;;;;19.30;99.90;;;;;;5117857;28;19953;-72
2023/10/10 11:48:00;;;;;;;;;;;19.30;99.90;;;;;;5112596;28;19920;-71
2023/10/10 11:50:43;;;;;;;;;;;19.30;99.90;;;;;;5109957;28;20522;-74
2023/10/10 11:53:12;;;;;;;;;;;19.30;99.90;;;;;;5112362;28;19922;-73
2023/10/10 11:55:42;;;;;;;;;;;19.30;99.90;;;;;;5113563;28;20379;-69
2023/10/10 11:58:16;;;;;;;;;;;19.20;99.90;;;;;;5112244;28;20432;-69
2023/10/10 12:00:43;;;;;;;;;;;19.30;99.90;;;;;;5108834;28;19915;-73
2023/10/10 12:03:11;;;;;;;;;;;19.20;99.90;;;;;;5112047;28;19926;-74
2023/10/10 12:05:50;;;;;;;;;;;19.20;99.90;;;;;;5113073;28;19990;-73
2023/10/10 12:08:23;;;;;;;;;;;19.20;99.90;;;;;;5111058;28;19927;-74
2023/10/10 12:10:53;;;;;;;;;;;19.20;99.90;;;;;;5111056;28;19915;-72
2023/10/10 12:13:33;;;;;;;;;;;19.20;99.90;;;;;;5091896;28;19926;-71
2023/10/10 12:16:01;;;;;;;;;;;19.20;99.90;;;;;;5113215;28;20378;-67
2023/10/10 12:18:31;;;;;;;;;;;19.00;99.90;;;;;;5113198;28;19915;-73
2023/10/10 12:20:58;;;;;;;;;;;19.00;99.90;;;;;;5111846;28;20372;-72
2023/10/10 12:23:25;;;;;;;;;;;19.00;99.90;;;;;;5109810;28;20261;-72
2023/10/10 12:25:54;;;;;;;;;;;19.00;99.90;;;;;;5111408;28;19911;-73
2023/10/10 12:28:21;;;;;;;;;;;19.00;99.90;;;;;;5109358;28;19964;-74
2023/10/10 12:30:48;;;;;;;;;;;18.90;99.90;;;;;;5112530;28;19934;-73
2023/10/10 12:33:19;;;;;;;;;;;19.00;99.90;;;;;;5112839;28;19927;-73
2023/10/10 12:35:49;;;;;;;;;;;19.00;99.90;;;;;;5108643;28;20322;-73
2023/10/10 12:38:20;;;;;;;;;;;19.00;99.90;;;;;;5112426;28;19924;-71
2023/10/10 12:40:54;;;;;;;;;;;19.00;99.90;;;;;;5111505;28;19968;-71
2023/10/10 12:43:23;;;;;;;;;;;19.10;99.90;;;;;;5091342;28;19960;-71
2023/10/10 12:46:00;;;;;;;;;;;19.10;99.90;;;;;;5111449;28;20342;-73
2023/10/10 12:48:28;;;;;;;;;;;19.10;99.90;;;;;;5101998;28;19924;-72
2023/10/10 12:50:59;;;;;;;;;;;19.10;99.90;;;;;;5109309;28;19926;-73
2023/10/10 12:53:30;;;;;;;;;;;19.10;99.90;;;;;;5092837;28;20526;-72
2023/10/10 12:56:06;;;;;;;;;;;19.10;99.90;;;;;;5111340;28;19911;-72
2023/10/10 12:58:33;;;;;;;;;;;19.10;99.90;;;;;;5109379;28;19955;-73
2023/10/10 13:00:59;;;;;;;;;;;19.10;99.90;;;;;;5111488;28;20312;-73
2023/10/10 13:03:30;;;;;;;;;;;19.10;99.90;;;;;;5112036;28;19908;-74
2023/10/10 13:06:00;;;;;;;;;;;19.20;99.90;;;;;;5111194;28;19951;-72
2023/10/10 13:08:38;;;;;;;;;;;19.20;99.90;;;;;;5110324;28;19922;-72
2023/10/10 13:11:56;;;;;;;;;;;19.20;99.90;;;;;;5109951;28;20272;-67
2023/10/10 13:14:08;;;;;;;;;;;19.30;99.90;;;;;;5097234;28;20275;-70
2023/10/10 13:19:11;;;;;;;;;;;19.30;99.90;;;;;;5111554;28;20362;-70
2023/10/10 13:21:42;;;;;;;;;;;19.30;99.90;;;;;;5111953;28;20322;-68
2023/10/10 13:24:13;;;;;;;;;;;19.20;99.90;;;;;;5111759;28;19908;-68
2023/10/10 13:26:41;;;;;;;;;;;19.20;99.90;;;;;;5108036;28;20265;-67
2023/10/10 13:29:08;;;;;;;;;;;19.20;99.90;;;;;;5111820;28;19961;-71
2023/10/10 13:31:37;;;;;;;;;;;19.20;99.90;;;;;;5111010;28;19915;-71
2023/10/10 13:34:04;;;;;;;;;;;19.30;99.90;;;;;;5109086;28;19919;-75
2023/10/10 13:36:32;;;;;;;;;;;19.20;99.90;;;;;;5110980;28;19960;-74
2023/10/10 13:39:05;;;;;;;;;;;19.20;99.90;;;;;;5111588;28;19908;-73
2023/10/10 13:41:35;;;;;;;;;;;19.20;99.90;;;;;;5111544;28;19915;-68
2023/10/10 13:44:03;;;;;;;;;;;19.20;99.90;;;;;;5112523;28;19971;-72
2023/10/10 13:46:34;;;;;;;;;;;19.20;99.90;;;;;;5112366;28;19916;-72
2023/10/10 13:49:08;;;;;;;;;;;19.10;99.90;;;;;;5112866;28;19920;-70
2023/10/10 13:51:41;;;;;;;;;;;19.10;99.90;;;;;;5112978;28;20015;-72
2023/10/10 13:54:07;;;;;;;;;;;19.00;99.90;;;;;;5093331;28;20085;-70
2023/10/10 13:56:34;;;;;;;;;;;19.00;99.90;;;;;;5093639;28;19995;-74
2023/10/10 13:59:01;;;;;;;;;;;18.90;99.90;;;;;;5103074;28;19954;-73
2023/10/10 14:01:36;;;;;;;;;;;19.00;99.90;;;;;;5112231;28;19908;-73
2023/10/10 14:06:48;;;;;;;;;;;19.00;99.90;;;;;;5103597;28;19930;-72
2023/10/10 14:09:25;;;;;;;;;;;19.00;99.90;;;;;;5092462;28;19908;-72
2023/10/10 14:11:52;;;;;;;;;;;19.10;99.90;;;;;;5092125;28;20376;-74
2023/10/10 14:14:19;;;;;;;;;;;19.10;99.90;;;;;;5092753;28;19913;-71
2023/10/10 14:16:46;;;;;;;;;;;19.10;99.90;;;;;;5100610;28;20365;-73
2023/10/10 14:19:12;;;;;;;;;;;19.10;99.90;;;;;;5094426;28;19916;-72
2023/10/10 14:21:39;;;;;;;;;;;19.10;99.90;;;;;;5112024;28;19908;-72
2023/10/10 14:24:08;;;;;;;;;;;19.10;99.90;;;;;;5110578;28;19919;-72
2023/10/10 14:26:38;;;;;;;;;;;19.10;99.90;;;;;;5105855;28;20380;-73
2023/10/10 14:29:08;;;;;;;;;;;19.10;99.90;;;;;;5096223;28;19908;-72
2023/10/10 14:31:42;;;;;;;;;;;19.10;99.90;;;;;;5095486;28;19908;-74
2023/10/10 14:34:11;;;;;;;;;;;19.00;99.90;;;;;;5095770;28;19961;-73
2023/10/10 14:36:39;;;;;;;;;;;19.00;99.90;;;;;;5105260;28;19918;-74
2023/10/10 14:39:08;;;;;;;;;;;18.90;99.90;;;;;;5116281;28;19918;-68
2023/10/10 14:41:35;;;;;;;;;;;19.00;99.90;;;;;;5115876;28;19908;-72
2023/10/10 14:44:03;;;;;;;;;;;19.00;99.90;;;;;;5113181;28;19914;-73
2023/10/10 14:46:33;;;;;;;;;;;19.00;99.90;;;;;;5095395;28;20292;-73
2023/10/10 14:49:01;;;;;;;;;;;19.00;99.90;;;;;;5095499;28;19993;-73
2023/10/10 14:51:33;;;;;;;;;;;19.00;99.90;;;;;;5111947;28;20450;-72
2023/10/10 14:54:06;;;;;;;;;;;19.00;99.90;;;;;;5114662;28;19938;-72
2023/10/10 14:56:37;;;;;;;;;;;19.00;99.90;;;;;;5095355;28;19931;-73
2023/10/10 14:59:05;;;;;;;;;;;19.00;99.90;;;;;;5077122;28;19908;-73
2023/10/10 15:01:34;;;;;;;;;;;19.00;99.90;;;;;;5095282;28;19908;-71
2023/10/10 15:04:04;;;;;;;;;;;19.00;99.90;;;;;;5095864;28;19908;-74
2023/10/10 15:06:31;;;;;;;;;;;19.00;99.90;;;;;;5115830;28;20356;-74
2023/10/10 15:08:58;;;;;;;;;;;19.00;99.90;;;;;;5115210;28;20023;-74
2023/10/10 15:11:28;;;;;;;;;;;19.10;99.90;;;;;;5108627;28;19912;-70
2023/10/10 15:13:58;;;;;;;;;;;19.00;99.90;;;;;;5095450;28;20062;-71
2023/10/10 15:16:34;;;;;;;;;;;19.00;99.90;;;;;;5095477;28;19908;-72
2023/10/10 15:19:06;;;;;;;;;;;19.00;99.90;;;;;;5095206;28;20428;-72
2023/10/10 15:21:33;;;;;;;;;;;19.00;99.90;;;;;;5102823;28;19911;-72
2023/10/10 15:24:00;;;;;;;;;;;18.90;99.90;;;;;;5097355;28;19957;-73
2023/10/10 15:26:28;;;;;;;;;;;18.90;99.90;;;;;;5115222;28;20018;-73
2023/10/10 15:28:56;;;;;;;;;;;18.80;99.90;;;;;;5115405;28;19935;-73
2023/10/10 15:31:27;;;;;;;;;;;18.80;99.90;;;;;;5108856;28;20421;-73
2023/10/10 15:33:54;;;;;;;;;;;18.90;99.90;;;;;;5094986;28;20379;-73
2023/10/10 15:36:21;;;;;;;;;;;18.80;99.90;;;;;;5077794;28;19908;-73
2023/10/10 15:38:49;;;;;;;;;;;18.80;99.90;;;;;;5104659;28;20002;-72
2023/10/10 15:41:16;;;;;;;;;;;18.80;99.90;;;;;;5114242;28;19912;-67
2023/10/10 15:43:52;;;;;;;;;;;18.70;99.90;;;;;;5094250;28;20013;-70
2023/10/10 15:46:19;;;;;;;;;;;18.70;99.90;;;;;;5094014;28;20319;-68
2023/10/10 15:48:49;;;;;;;;;;;18.70;99.90;;;;;;5094625;28;19926;-70
2023/10/10 15:51:16;;;;;;;;;;;18.60;99.90;;;;;;5098570;28;19912;-68
2023/10/10 15:53:42;;;;;;;;;;;18.50;99.90;;;;;;5097862;28;19920;-74
2023/10/10 15:56:15;;;;;;;;;;;18.50;99.90;;;;;;5094488;28;19912;-70
2023/10/10 15:58:52;;;;;;;;;;;18.40;99.90;;;;;;5094717;28;19934;-70
2023/10/10 16:01:28;;;;;;;;;;;18.40;99.90;;;;;;5098668;28;19912;-69
2023/10/10 16:03:59;;;;;;;;;;;18.20;99.90;;;;;;5114248;28;19912;-67
2023/10/10 16:06:33;;;;;;;;;;;18.20;99.90;;;;;;5114691;28;19915;-70
2023/10/10 16:09:07;;;;;;;;;;;18.10;99.90;;;;;;5108621;28;20273;-70
2023/10/10 16:11:34;;;;;;;;;;;18.10;99.90;;;;;;5100649;28;19934;-72
2023/10/10 16:14:14;;;;;;;;;;;18.00;99.90;;;;;;5114523;28;20360;-71
2023/10/10 16:16:45;;;;;;;;;;;18.00;99.90;;;;;;5114721;28;19952;-70
2023/10/10 16:19:17;;;;;;;;;;;17.90;99.90;;;;;;5114643;28;19946;-72
2023/10/10 16:21:44;;;;;;;;;;;17.90;99.90;;;;;;5103583;28;19912;-71
2023/10/10 16:24:14;;;;;;;;;;;17.90;99.90;;;;;;5094098;28;19908;-73
2023/10/10 16:26:41;;;;;;;;;;;17.80;99.90;;;;;;5093995;28;19909;-71
2023/10/10 16:29:08;;;;;;;;;;;17.70;99.90;;;;;;5094265;28;20054;-70
2023/10/10 16:31:36;;;;;;;;;;;17.70;99.90;;;;;;5094381;28;19912;-70
2023/10/10 16:34:03;;;;;;;;;;;17.70;99.90;;;;;;5075630;28;19967;-73
2023/10/10 16:36:30;;;;;;;;;;;17.60;99.90;;;;;;5093881;28;19927;-72
2023/10/10 16:38:56;;;;;;;;;;;17.60;99.90;;;;;;5094458;28;19912;-71
2023/10/10 16:41:23;;;;;;;;;;;17.60;99.90;;;;;;5100380;28;19919;-71
2023/10/10 16:43:50;;;;;;;;;;;17.50;99.90;;;;;;5113994;28;19915;-73
2023/10/10 16:46:17;;;;;;;;;;;17.50;99.90;;;;;;5114333;28;19908;-74
2023/10/10 16:48:47;;;;;;;;;;;17.40;99.90;;;;;;5095282;28;19927;-73
2023/10/10 16:51:20;;;;;;;;;;;17.40;99.90;;;;;;5089935;28;19948;-73
2023/10/10 16:53:52;;;;;;;;;;;17.50;99.90;;;;;;5113182;28;20327;-72
2023/10/10 16:56:22;;;;;;;;;;;17.50;99.90;;;;;;5113556;28;19914;-73
2023/10/10 16:58:50;;;;;;;;;;;17.50;99.90;;;;;;5113664;28;19916;-72
2023/10/10 17:01:17;;;;;;;;;;;17.60;99.90;;;;;;5107594;28;19919;-70
2023/10/10 17:03:45;;;;;;;;;;;17.60;99.90;;;;;;5093282;28;20322;-73
2023/10/10 17:06:37;;;;;;;;;;;17.60;99.90;;;;;;5093518;28;19915;-72
2023/10/10 17:09:04;;;;;;;;;;;17.70;99.90;;;;;;5113574;28;19908;-72
2023/10/10 17:11:30;;;;;;;;;;;17.80;99.90;;;;;;5105914;28;19912;-72